Time;durP1;ratioP1;P1;durP2;ratioP2;P2;SDS_P1;SDS_P2;PMS_P1;PMS_P2;Temp;Humidity;BMP_temperature;BMP_pressure;BME280_temperature;BME280_humidity;BME280_pressure;Samples;Min_cycle;Max_cycle;Signal;HPM_P1;HPM_P2
2021/12/16 00:02:31;;;;;;;;;3.00;1.25;;;;;10.16;69.74;103157.59;5041007;28;45386;-86
2021/12/16 00:07:59;;;;;;;;;1.25;1.25;;;;;10.11;69.85;103170.38;5041129;28;45436;-85
2021/12/16 00:10:35;;;;;;;;;1.75;1.75;;;;;9.70;69.86;103102.44;5041767;28;45410;-85
2021/12/16 00:32:16;;;;;;;;;1.00;1.00;;;;;10.12;69.54;103160.84;5041679;28;45351;-87
2021/12/16 00:34:42;;;;;;;;;3.50;1.00;;;;;10.27;69.67;103198.03;5040929;28;45543;-87
2021/12/16 00:37:07;;;;;;;;;2.50;1.25;;;;;10.19;69.86;103177.66;5043258;28;45830;-87
2021/12/16 00:39:35;;;;;;;;;1.25;1.25;;;;;10.31;69.57;103188.69;5044698;28;47259;-86
2021/12/16 00:42:06;;;;;;;;;2.00;1.00;;;;;10.08;69.78;103149.38;5044710;28;45338;-85
2021/12/16 00:47:25;;;;;;;;;1.00;1.00;;;;;10.10;69.40;103163.38;5042107;28;45537;-87
2021/12/16 00:49:49;;;;;;;;;2.00;2.00;;;;;10.33;69.79;103194.88;5040820;28;46228;-87
2021/12/16 00:55:24;;;;;;;;;4.75;2.75;;;;;10.32;69.72;103185.25;5044947;28;45342;-87
2021/12/16 00:57:51;;;;;;;;;2.00;1.00;;;;;9.94;69.50;103107.09;5045709;28;45367;-86
2021/12/16 01:00:18;;;;;;;;;2.25;1.25;;;;;10.34;69.81;103172.31;5044606;28;46031;-87
2021/12/16 01:02:57;;;;;;;;;2.50;2.00;;;;;10.37;69.74;103180.28;5044623;28;45231;-86
2021/12/16 01:35:29;;;;;;;;;2.00;1.00;;;;;9.92;70.08;103121.72;5064186;28;45249;-87
2021/12/16 01:40:44;;;;;;;;;1.75;1.75;;;;;10.13;70.60;103192.16;5065631;28;45461;-86
2021/12/16 01:50:40;;;;;;;;;4.25;3.50;;;;;9.89;70.50;103143.28;5064638;28;45176;-87
2021/12/16 01:53:49;;;;;;;;;5.00;3.75;;;;;10.14;70.10;103191.34;5064305;28;45309;-87
2021/12/16 01:56:03;;;;;;;;;0.50;0.25;;;;;10.09;70.56;103186.72;5063820;28;45327;-86
2021/12/16 01:58:32;;;;;;;;;4.00;3.25;;;;;10.07;70.88;103202.25;5064459;28;45242;-87
2021/12/16 02:01:16;;;;;;;;;5.00;3.50;;;;;9.81;70.74;103172.31;5064624;28;45294;-87
2021/12/16 02:03:48;;;;;;;;;3.00;2.75;;;;;9.54;70.86;103123.28;5064406;28;45472;-86
2021/12/16 02:09:05;;;;;;;;;2.75;2.75;;;;;10.05;71.10;103209.13;5064712;28;45314;-86
2021/12/16 02:35:42;;;;;;;;;5.00;5.00;;;;;9.35;71.10;103128.41;5046001;28;45261;-86
2021/12/16 02:38:08;;;;;;;;;8.00;4.50;;;;;9.58;70.98;103172.94;5044073;28;45512;-86
2021/12/16 02:40:36;;;;;;;;;4.00;4.00;;;;;9.34;71.36;103139.63;5044041;28;45413;-87
2021/12/16 02:48:41;;;;;;;;;5.00;3.50;;;;;8.92;71.58;103084.59;5043581;28;45399;-87
2021/12/16 02:51:20;;;;;;;;;3.00;2.75;;;;;8.67;71.57;103036.53;5043963;28;45351;-87
2021/12/16 02:53:49;;;;;;;;;4.00;3.25;;;;;9.62;71.82;103203.47;5043889;28;45449;-87
2021/12/16 02:56:15;;;;;;;;;5.25;4.25;;;;;9.64;71.66;103200.97;5043751;28;46396;-87
2021/12/16 02:58:47;;;;;;;;;2.00;2.00;;;;;9.68;71.90;103213.31;5043859;28;45191;-88
2021/12/16 03:01:17;;;;;;;;;7.50;5.00;;;;;9.52;71.55;103169.13;5048127;28;45377;-87
2021/12/16 03:03:43;;;;;;;;;1.75;1.75;;;;;9.25;71.72;103132.25;5066267;28;44717;-87
2021/12/16 03:06:10;;;;;;;;;4.75;4.00;;;;;9.49;71.67;103188.03;5078202;28;47468;-87
2021/12/16 03:08:36;;;;;;;;;5.00;3.50;;;;;9.05;71.57;103092.22;5052840;28;44882;-87
2021/12/16 03:13:37;;;;;;;;;5.25;4.25;;;;;8.96;71.57;103089.13;5043096;28;45456;-87
2021/12/16 03:16:25;;;;;;;;;4.00;3.25;;;;;9.68;71.79;103202.91;5041862;28;46053;-87
2021/12/16 03:21:25;;;;;;;;;4.00;3.50;;;;;9.26;71.67;103143.53;5042946;28;45224;-88
2021/12/16 03:37:19;;;;;;;;;4.50;4.00;;;;;9.69;71.78;103217.72;5042535;28;45443;-86
2021/12/16 03:39:58;;;;;;;;;8.00;4.00;;;;;9.54;71.99;103188.28;5042533;28;45553;-86
2021/12/16 03:42:32;;;;;;;;;2.50;2.50;;;;;9.70;71.78;103214.28;5047047;28;45461;-87
2021/12/16 03:45:06;;;;;;;;;5.25;4.75;;;;;9.22;71.92;103132.06;5060514;28;45314;-86
2021/12/16 03:47:45;;;;;;;;;2.75;2.75;;;;;9.70;72.44;103211.69;5061179;28;45574;-86
2021/12/16 03:50:20;;;;;;;;;2.00;1.25;;;;;9.74;71.92;103204.94;5045196;28;46086;-87
2021/12/16 03:52:48;;;;;;;;;5.00;5.00;;;;;9.79;71.81;103211.28;5046152;28;45377;-88
2021/12/16 03:55:15;;;;;;;;;3.00;3.00;;;;;9.11;71.65;103087.34;5044788;28;45546;-87
2021/12/16 03:57:42;;;;;;;;;3.25;3.00;;;;;9.82;71.70;103205.31;5043300;28;45487;-87
2021/12/16 04:00:13;;;;;;;;;3.75;3.25;;;;;9.46;71.75;103157.56;5043295;28;45401;-87
2021/12/16 04:02:39;;;;;;;;;3.25;2.00;;;;;9.85;71.77;103214.19;5042259;28;45172;-88
2021/12/16 04:05:07;;;;;;;;;3.25;3.25;;;;;9.33;71.76;103130.06;5041251;28;45557;-88
2021/12/16 04:07:35;;;;;;;;;3.25;3.25;;;;;9.79;71.85;103202.56;5042253;28;45460;-88
2021/12/16 04:10:04;;;;;;;;;5.00;4.75;;;;;9.94;71.73;103208.56;5042172;28;45262;-87
2021/12/16 04:12:29;;;;;;;;;2.75;1.25;;;;;9.86;71.41;103183.84;5041029;28;45224;-88
2021/12/16 04:14:59;;;;;;;;;4.50;2.25;;;;;9.34;71.16;103103.22;5042604;28;45332;-88
2021/12/16 04:17:30;;;;;;;;;2.50;2.50;;;;;9.30;71.55;103088.31;5041908;28;46295;-88
2021/12/16 04:19:57;;;;;;;;;3.00;2.00;;;;;9.46;71.30;103108.19;5040312;28;45907;-88
2021/12/16 04:22:30;;;;;;;;;4.25;2.50;;;;;9.35;71.22;103099.81;5042217;28;45262;-87
2021/12/16 04:24:58;;;;;;;;;2.00;2.00;;;;;9.87;71.54;103186.53;5043876;28;45388;-87
2021/12/16 04:27:25;;;;;;;;;5.75;4.00;;;;;10.03;71.64;103213.34;5040793;28;46744;-88
2021/12/16 04:29:51;;;;;;;;;3.00;3.00;;;;;9.63;71.25;103135.06;5045719;28;45267;-88
2021/12/16 04:32:17;;;;;;;;;8.00;6.75;;;;;9.17;71.56;103075.47;5051284;28;45253;-88
2021/12/16 04:34:43;;;;;;;;;5.75;4.00;;;;;9.71;71.43;103164.03;5064208;28;45252;-88
2021/12/16 04:37:09;;;;;;;;;4.50;2.00;;;;;9.45;71.69;103131.50;5061067;28;45388;-88
2021/12/16 04:39:38;;;;;;;;;3.25;2.50;;;;;9.52;71.52;103132.72;5044156;28;45517;-88
2021/12/16 04:42:06;;;;;;;;;5.00;3.00;;;;;9.11;71.34;103063.97;5046904;28;45300;-86
2021/12/16 04:44:33;;;;;;;;;2.00;2.00;;;;;9.40;71.29;103123.44;5064518;28;45534;-85
2021/12/16 04:47:00;;;;;;;;;3.75;3.00;;;;;10.06;71.50;103223.91;5047788;28;46172;-85
2021/12/16 04:49:27;;;;;;;;;4.75;4.75;;;;;9.88;71.24;103210.84;5047156;28;45336;-86
2021/12/16 04:51:55;;;;;;;;;6.00;5.75;;;;;9.49;71.19;103154.22;5044911;28;45334;-85
2021/12/16 04:54:27;;;;;;;;;8.75;8.00;;;;;9.95;71.66;103240.69;5045109;28;45213;-85
2021/12/16 04:56:54;;;;;;;;;7.25;7.25;;;;;9.62;71.54;103168.78;5044771;28;46319;-86
2021/12/16 04:59:21;;;;;;;;;6.50;4.25;;;;;9.67;71.34;103202.81;5045405;28;45282;-86
2021/12/16 05:01:55;;;;;;;;;2.00;2.00;;;;;9.84;71.61;103234.94;5041864;28;45270;-86
2021/12/16 05:04:21;;;;;;;;;5.50;4.50;;;;;9.22;71.86;103137.28;5045002;28;45383;-86
2021/12/16 05:06:46;;;;;;;;;4.00;4.00;;;;;9.86;71.65;103243.69;5044737;28;46101;-86
2021/12/16 05:09:22;;;;;;;;;5.00;4.00;;;;;9.55;72.28;103197.91;5044941;28;45311;-86
2021/12/16 05:11:48;;;;;;;;;3.00;2.00;;;;;9.45;71.93;103173.09;5041731;28;45271;-85
2021/12/16 05:14:18;;;;;;;;;3.50;3.00;;;;;9.33;71.99;103145.66;5044977;28;45300;-85
2021/12/16 05:16:44;;;;;;;;;3.00;2.75;;;;;9.72;72.32;103230.88;5044618;28;45583;-85
2021/12/16 05:19:09;;;;;;;;;5.25;4.00;;;;;9.52;71.92;103190.81;5042906;28;45285;-86
2021/12/16 05:21:59;;;;;;;;;3.25;3.00;;;;;9.46;71.67;103177.47;5032194;28;45735;-86
2021/12/16 05:24:25;;;;;;;;;2.75;2.50;;;;;9.93;72.02;103242.31;5024595;28;45580;-86
2021/12/16 05:26:57;;;;;;;;;5.00;5.00;;;;;9.68;72.38;103215.91;5024439;28;46412;-86
2021/12/16 05:29:24;;;;;;;;;4.25;3.25;;;;;9.23;72.03;103132.97;5024070;28;45426;-86
2021/12/16 05:31:50;;;;;;;;;3.00;3.00;;;;;9.68;72.17;103221.09;5030673;28;45269;-86
2021/12/16 05:34:16;;;;;;;;;4.25;4.00;;;;;9.32;72.14;103154.28;5064706;28;45415;-86
2021/12/16 05:36:41;;;;;;;;;3.25;2.75;;;;;9.62;72.10;103198.28;5064404;28;45750;-86
2021/12/16 05:39:07;;;;;;;;;7.75;4.75;;;;;9.67;72.03;103221.94;5063556;28;45375;-85
2021/12/16 05:41:33;;;;;;;;;5.00;1.75;;;;;9.72;71.97;103216.97;5038274;28;45431;-85
2021/12/16 05:43:59;;;;;;;;;3.75;3.00;;;;;9.15;72.06;103126.50;5025281;28;45300;-87
2021/12/16 05:46:27;;;;;;;;;4.50;4.25;;;;;9.81;72.20;103242.56;5024430;28;45511;-86
2021/12/16 05:48:54;;;;;;;;;4.50;2.00;;;;;9.46;71.94;103174.88;5023054;28;45862;-86
2021/12/16 05:51:26;;;;;;;;;6.00;3.00;;;;;9.58;72.30;103192.81;5027506;28;45476;-85
2021/12/16 05:53:52;;;;;;;;;5.00;3.00;;;;;10.05;72.26;103263.78;5026399;28;45297;-85
2021/12/16 05:56:18;;;;;;;;;3.50;2.00;;;;;10.11;72.17;103263.19;5026123;28;45530;-87
2021/12/16 05:58:45;;;;;;;;;5.00;3.50;;;;;9.98;71.96;103244.34;5031619;28;45431;-85
2021/12/16 06:01:14;;;;;;;;;1.50;1.50;;;;;9.90;71.80;103240.47;5024961;28;45434;-84
2021/12/16 06:03:42;;;;;;;;;4.75;4.00;;;;;9.80;71.84;103223.44;5034104;28;45531;-81
2021/12/16 06:06:07;;;;;;;;;2.50;2.50;;;;;9.59;71.54;103179.91;5024663;28;46366;-82
2021/12/16 06:08:33;;;;;;;;;2.25;1.50;;;;;10.06;71.33;103256.84;5036203;28;45365;-82
2021/12/16 06:13:36;;;;;;;;;3.25;1.75;;;;;9.82;71.37;103213.13;5023477;28;45623;-82
2021/12/16 06:22:27;;;;;;;;;7.50;2.50;;;;;10.24;71.16;103296.84;5042949;28;46285;-82
2021/12/16 06:29:36;;;;;;;;;3.00;3.00;;;;;9.91;71.39;103207.50;5038652;28;45480;-83
2021/12/16 06:32:02;;;;;;;;;2.50;2.50;;;;;10.10;71.19;103244.06;5031694;28;45460;-84
2021/12/16 06:34:27;;;;;;;;;6.75;3.75;;;;;9.91;71.38;103210.09;5044701;28;45322;-84
2021/12/16 06:36:53;;;;;;;;;2.00;2.00;;;;;9.99;70.95;103237.44;5048196;28;45445;-84
2021/12/16 06:39:19;;;;;;;;;3.25;1.75;;;;;10.10;71.18;103245.75;5034008;28;45508;-84
2021/12/16 06:41:48;;;;;;;;;1.50;1.50;;;;;9.74;71.23;103190.22;5035098;28;45484;-85
2021/12/16 06:44:27;;;;;;;;;8.00;4.00;;;;;10.31;71.36;103276.31;5031177;28;45299;-83
2021/12/16 06:46:59;;;;;;;;;4.00;4.00;;;;;10.24;71.16;103257.81;5045690;28;48154;-85
2021/12/16 06:49:25;;;;;;;;;6.25;5.00;;;;;10.32;71.25;103285.94;5049450;28;45257;-80
2021/12/16 06:51:55;;;;;;;;;5.75;4.00;;;;;9.89;71.04;103220.44;5042368;28;45388;-81
2021/12/16 06:54:28;;;;;;;;;4.50;3.75;;;;;9.98;71.39;103228.72;5041760;28;45244;-84
2021/12/16 07:00:17;;;;;;;;;4.50;3.50;;;;;10.08;71.05;103250.91;5029877;28;45455;-85
2021/12/16 07:05:30;;;;;;;;;2.75;2.75;;;;;10.20;71.02;103279.25;5023712;28;45571;-86
2021/12/16 07:07:57;;;;;;;;;2.00;2.00;;;;;9.99;71.15;103235.69;5023161;28;45522;-84
2021/12/16 07:10:23;;;;;;;;;3.00;2.25;;;;;10.23;71.02;103278.56;5022497;28;45327;-85
2021/12/16 07:12:49;;;;;;;;;3.25;2.75;;;;;10.10;71.05;103275.31;5035891;28;45485;-85
2021/12/16 07:15:24;;;;;;;;;4.25;3.25;;;;;10.33;71.09;103303.34;5057037;28;45637;-85
2021/12/16 07:17:51;;;;;;;;;6.50;5.25;;;;;10.22;71.19;103287.16;5039746;28;46396;-85
2021/12/16 07:20:21;;;;;;;;;9.25;5.50;;;;;10.26;70.83;103284.78;5057768;28;45452;-85
2021/12/16 07:22:47;;;;;;;;;4.50;3.25;;;;;9.82;70.93;103210.53;5042462;28;45151;-83
2021/12/16 07:25:12;;;;;;;;;5.75;4.00;;;;;10.39;71.05;103306.25;5059109;28;45653;-84
2021/12/16 07:27:38;;;;;;;;;3.00;3.00;;;;;10.20;71.23;103273.19;5042961;28;46369;-86
2021/12/16 07:30:08;;;;;;;;;1.50;1.00;;;;;10.37;70.78;103300.06;5041690;28;45284;-82
2021/12/16 07:32:35;;;;;;;;;3.00;2.00;;;;;10.38;71.08;103309.66;5042929;28;45480;-83
2021/12/16 07:35:01;;;;;;;;;3.00;3.00;;;;;10.05;70.84;103250.75;5045327;28;45251;-85
2021/12/16 07:37:26;;;;;;;;;5.75;4.75;;;;;10.39;71.09;103311.47;5040924;28;45546;-85
2021/12/16 07:39:52;;;;;;;;;1.75;1.00;;;;;9.55;71.08;103170.16;5047775;28;45269;-84
2021/12/16 07:42:26;;;;;;;;;4.00;3.75;;;;;10.34;70.33;103305.09;5020367;28;45350;-84
2021/12/16 07:44:52;;;;;;;;;2.00;2.00;;;;;10.33;70.99;103298.13;5022162;28;45300;-82
2021/12/16 07:47:17;;;;;;;;;2.50;2.50;;;;;9.85;70.57;103223.69;5021280;28;45341;-84
2021/12/16 07:49:44;;;;;;;;;4.00;3.25;;;;;10.11;70.92;103263.19;5021668;28;45224;-83
2021/12/16 07:52:13;;;;;;;;;2.75;2.75;;;;;10.42;70.68;103308.13;5021984;28;45196;-82
2021/12/16 07:54:39;;;;;;;;;5.25;4.75;;;;;10.34;71.11;103293.00;5022671;28;45288;-84
2021/12/16 07:57:05;;;;;;;;;3.00;2.75;;;;;10.47;70.94;103312.75;5028592;28;45875;-83
2021/12/16 07:59:32;;;;;;;;;2.50;2.00;;;;;10.47;70.71;103324.88;5043158;28;45407;-83
2021/12/16 08:01:58;;;;;;;;;2.25;2.25;;;;;10.43;70.94;103320.31;5029974;28;45315;-84
2021/12/16 08:04:29;;;;;;;;;1.75;1.75;;;;;10.01;70.92;103251.41;5043986;28;45297;-85
2021/12/16 08:06:58;;;;;;;;;8.00;4.75;;;;;9.92;70.80;103231.00;5042457;28;45785;-84
2021/12/16 08:09:24;;;;;;;;;4.25;4.00;;;;;10.32;70.74;103297.22;5044314;28;45257;-84
2021/12/16 08:11:51;;;;;;;;;3.25;3.00;;;;;10.05;70.97;103255.97;5033883;28;45267;-84
2021/12/16 08:14:18;;;;;;;;;4.50;4.50;;;;;9.80;70.60;103226.06;5034332;28;45765;-83
2021/12/16 08:16:44;;;;;;;;;5.75;4.00;;;;;10.11;70.40;103274.47;5053052;28;47377;-84
2021/12/16 08:19:09;;;;;;;;;2.75;2.75;;;;;10.54;70.36;103346.94;5032778;28;45435;-84
2021/12/16 08:21:36;;;;;;;;;3.25;3.25;;;;;10.38;70.70;103310.56;5038294;28;45270;-84
2021/12/16 08:24:05;;;;;;;;;3.00;3.00;;;;;10.18;70.06;103270.50;5038212;28;45568;-85
2021/12/16 08:26:31;;;;;;;;;2.00;2.00;;;;;10.31;70.51;103297.13;5037491;28;45583;-86
2021/12/16 08:28:57;;;;;;;;;4.00;4.00;;;;;9.95;70.46;103233.75;5037356;28;45816;-85
2021/12/16 08:31:24;;;;;;;;;4.00;4.00;;;;;10.45;70.76;103340.47;5039442;28;45464;-85
2021/12/16 08:33:49;;;;;;;;;6.00;4.25;;;;;10.44;70.71;103329.94;5046184;28;45554;-86
2021/12/16 08:36:15;;;;;;;;;5.50;3.00;;;;;10.07;70.45;103266.44;5038553;28;45449;-86
2021/12/16 08:38:42;;;;;;;;;3.50;1.00;;;;;10.54;70.65;103353.06;5054163;28;45451;-84
2021/12/16 08:41:15;;;;;;;;;3.75;3.75;;;;;10.03;70.37;103249.78;5053193;28;45280;-85
2021/12/16 08:43:41;;;;;;;;;5.50;3.25;;;;;10.34;70.64;103308.63;5063456;28;44678;-84
2021/12/16 08:46:12;;;;;;;;;3.75;3.50;;;;;10.58;70.41;103346.28;5051034;28;46874;-83
2021/12/16 08:48:39;;;;;;;;;4.75;4.00;;;;;10.61;70.29;103357.75;5034817;28;45494;-84
2021/12/16 08:51:05;;;;;;;;;4.50;3.00;;;;;10.52;70.40;103339.94;5036348;28;45456;-82
2021/12/16 08:53:31;;;;;;;;;3.00;3.00;;;;;10.63;69.85;103350.03;5036847;28;45756;-82
2021/12/16 08:55:59;;;;;;;;;2.25;2.25;;;;;10.54;70.12;103342.63;5035029;28;46205;-82
2021/12/16 08:58:25;;;;;;;;;3.00;3.00;;;;;10.29;70.26;103290.97;5032794;28;45304;-82
2021/12/16 09:01:04;;;;;;;;;2.75;2.75;;;;;10.46;70.19;103323.09;5036048;28;45551;-81
2021/12/16 09:03:30;;;;;;;;;3.00;3.00;;;;;10.01;70.19;103248.78;5040343;28;45487;-84
2021/12/16 09:05:57;;;;;;;;;4.25;4.25;;;;;10.31;69.99;103307.56;5039897;28;45389;-84
2021/12/16 09:08:23;;;;;;;;;6.00;2.50;;;;;10.48;69.96;103343.19;5044274;28;45476;-85
2021/12/16 09:10:49;;;;;;;;;2.50;2.25;;;;;10.21;69.76;103291.47;5043577;28;45220;-84
2021/12/16 09:13:17;;;;;;;;;2.75;2.75;;;;;10.36;69.85;103306.97;5044283;28;45504;-84
2021/12/16 09:15:48;;;;;;;;;3.00;3.00;;;;;10.72;70.01;103368.69;5041427;28;48149;-83
2021/12/16 09:18:16;;;;;;;;;4.25;3.00;;;;;10.54;69.68;103332.22;5032710;28;45278;-83
2021/12/16 09:20:43;;;;;;;;;5.00;2.75;;;;;10.02;69.61;103238.47;5040866;28;45515;-83
2021/12/16 09:23:10;;;;;;;;;2.75;2.75;;;;;9.88;69.40;103229.97;5045232;28;45240;-82
2021/12/16 09:25:37;;;;;;;;;1.75;1.00;;;;;10.46;69.69;103324.00;5048576;28;45525;-82
2021/12/16 09:28:03;;;;;;;;;2.00;2.00;;;;;10.06;69.40;103262.03;5055309;28;45216;-86
2021/12/16 09:30:31;;;;;;;;;2.00;2.00;;;;;10.08;69.46;103270.84;5050278;28;45288;-81
2021/12/16 09:32:59;;;;;;;;;4.75;4.75;;;;;10.43;69.48;103331.63;5043908;28;45850;-82
2021/12/16 09:35:29;;;;;;;;;3.00;1.75;;;;;10.10;69.28;103277.00;5042246;28;46129;-80
2021/12/16 09:37:56;;;;;;;;;6.75;4.00;;;;;10.55;69.57;103353.94;5041769;28;45376;-83
2021/12/16 09:40:24;;;;;;;;;2.75;1.75;;;;;10.71;69.52;103382.56;5043827;28;45396;-83
2021/12/16 09:42:54;;;;;;;;;1.75;1.50;;;;;10.34;69.22;103315.53;5043572;28;45527;-84
2021/12/16 09:45:21;;;;;;;;;3.00;3.00;;;;;10.08;69.18;103278.66;5038653;28;45466;-83
2021/12/16 09:47:47;;;;;;;;;5.50;4.00;;;;;10.65;69.32;103379.63;5040510;28;45497;-85
2021/12/16 09:50:18;;;;;;;;;4.50;3.25;;;;;10.12;69.20;103285.78;5043507;28;45452;-85
2021/12/16 09:52:44;;;;;;;;;3.00;3.00;;;;;10.41;68.90;103325.44;5046399;28;45630;-87
2021/12/16 09:55:10;;;;;;;;;4.25;3.75;;;;;10.36;69.17;103319.13;5042349;28;45469;-86
2021/12/16 09:57:36;;;;;;;;;4.75;3.00;;;;;10.55;69.20;103354.84;5038656;28;45272;-86
2021/12/16 10:00:06;;;;;;;;;4.25;3.75;;;;;10.90;69.14;103401.72;5044430;28;45578;-86
2021/12/16 10:02:32;;;;;;;;;4.00;3.00;;;;;10.31;69.03;103303.25;5040093;28;45377;-85
2021/12/16 10:04:58;;;;;;;;;5.25;3.00;;;;;10.77;68.91;103372.44;5042589;28;45361;-87
2021/12/16 10:07:28;;;;;;;;;3.50;3.50;;;;;10.67;68.89;103348.44;5044159;28;45385;-86
2021/12/16 10:09:55;;;;;;;;;4.50;3.00;;;;;10.55;68.51;103331.38;5043497;28;45295;-87
2021/12/16 10:12:26;;;;;;;;;1.00;1.00;;;;;11.04;68.55;103407.63;5043654;28;45404;-87
2021/12/16 10:17:31;;;;;;;;;4.25;4.25;;;;;10.74;68.50;103347.94;5038700;28;46336;-87
2021/12/16 10:20:00;;;;;;;;;5.75;3.50;;;;;10.69;68.26;103345.09;5051532;28;45382;-87
2021/12/16 10:22:32;;;;;;;;;6.25;4.25;;;;;10.79;68.36;103351.69;5033874;28;46505;-87
2021/12/16 10:25:21;;;;;;;;;3.00;3.00;;;;;11.05;68.23;103401.59;5042459;28;46237;-87
2021/12/16 10:28:04;;;;;;;;;4.50;4.00;;;;;11.20;68.33;103410.97;5032899;28;45845;-88
2021/12/16 10:31:17;;;;;;;;;3.25;2.75;;;;;11.25;68.13;103412.09;5055841;28;45304;-87
2021/12/16 10:33:52;;;;;;;;;8.75;6.50;;;;;11.03;68.03;103367.63;5035269;28;45913;-87
2021/12/16 10:36:29;;;;;;;;;2.50;2.00;;;;;11.02;68.07;103365.84;5048783;28;46503;-87
2021/12/16 10:39:07;;;;;;;;;4.75;3.75;;;;;10.67;67.68;103293.72;5047475;28;45299;-87
2021/12/16 10:41:38;;;;;;;;;4.50;2.00;;;;;11.37;67.52;103403.97;5044108;28;45426;-84
2021/12/16 10:44:14;;;;;;;;;3.00;3.00;;;;;11.12;67.48;103361.09;5037485;28;45570;-85
2021/12/16 10:46:45;;;;;;;;;4.50;4.50;;;;;11.45;67.79;103409.56;5039531;28;45290;-84
2021/12/16 10:49:25;;;;;;;;;6.75;3.00;;;;;11.44;67.61;103397.34;5037612;28;45570;-85
2021/12/16 10:51:55;;;;;;;;;2.00;2.00;;;;;10.85;66.77;103309.38;5042239;28;45476;-85
2021/12/16 10:54:28;;;;;;;;;5.25;4.00;;;;;11.51;67.74;103404.63;5041968;28;45336;-84
2021/12/16 10:56:59;;;;;;;;;3.50;2.25;;;;;11.47;67.56;103407.91;5034624;28;46214;-83
2021/12/16 10:59:28;;;;;;;;;7.00;4.00;;;;;11.43;67.30;103400.78;5033816;28;45403;-83
2021/12/16 11:02:12;;;;;;;;;2.25;2.00;;;;;11.40;67.06;103406.75;5035011;28;45358;-83
2021/12/16 11:04:51;;;;;;;;;5.50;4.00;;;;;11.40;67.21;103397.19;5032400;28;45306;-84
2021/12/16 11:07:31;;;;;;;;;2.25;2.25;;;;;11.35;67.75;103376.94;5033711;28;48082;-83
2021/12/16 11:10:20;;;;;;;;;2.00;2.00;;;;;11.46;67.13;103401.81;5039338;28;45397;-83
2021/12/16 11:12:54;;;;;;;;;6.25;4.25;;;;;11.50;67.09;103398.53;5038890;28;45416;-84
2021/12/16 11:15:32;;;;;;;;;5.50;4.50;;;;;11.40;67.54;103385.88;5040776;28;45572;-82
2021/12/16 11:18:08;;;;;;;;;1.00;1.00;;;;;10.80;66.98;103298.72;5041194;28;45274;-82
2021/12/16 11:20:48;;;;;;;;;4.25;3.25;;;;;11.46;67.39;103401.81;5035191;28;45352;-84
2021/12/16 11:23:26;;;;;;;;;5.75;4.00;;;;;11.17;66.96;103367.41;5037504;28;45524;-82
2021/12/16 11:25:55;;;;;;;;;2.50;2.50;;;;;11.47;66.88;103398.38;5041152;28;45622;-84
2021/12/16 11:28:31;;;;;;;;;6.50;4.75;;;;;11.50;67.00;103406.38;5037491;28;45339;-84
2021/12/16 11:31:00;;;;;;;;;2.00;2.00;;;;;11.24;67.32;103372.09;5055032;28;45563;-84
2021/12/16 11:33:32;;;;;;;;;4.75;3.00;;;;;11.41;67.12;103403.31;5056138;28;45796;-86
2021/12/16 11:36:02;;;;;;;;;5.00;3.00;;;;;11.46;67.14;103406.13;5044965;28;45481;-84
2021/12/16 11:38:30;;;;;;;;;2.75;1.75;;;;;11.09;67.21;103342.69;5041008;28;46408;-86
2021/12/16 11:41:06;;;;;;;;;3.00;3.00;;;;;11.49;66.99;103411.50;5041350;28;45512;-85
2021/12/16 11:43:34;;;;;;;;;1.25;1.25;;;;;11.09;66.92;103347.91;5042218;28;45496;-86
2021/12/16 11:46:00;;;;;;;;;2.50;2.50;;;;;11.47;66.85;103402.69;5043756;28;45414;-84
2021/12/16 11:48:31;;;;;;;;;1.25;1.25;;;;;11.48;67.08;103394.94;5040843;28;45354;-85
2021/12/16 11:51:26;;;;;;;;;3.00;2.25;;;;;11.34;66.84;103363.00;5040867;28;45394;-86
2021/12/16 11:53:58;;;;;;;;;3.50;2.50;;;;;10.66;66.94;103245.97;5039002;28;45542;-87
2021/12/16 11:56:42;;;;;;;;;5.00;1.75;;;;;11.43;66.74;103385.13;5038378;28;45278;-85
2021/12/16 11:59:08;;;;;;;;;7.75;4.50;;;;;11.24;66.76;103351.22;5041463;28;46504;-84
2021/12/16 12:01:37;;;;;;;;;2.00;2.00;;;;;10.89;66.74;103288.78;5042299;28;45490;-83
2021/12/16 12:04:05;;;;;;;;;2.00;2.00;;;;;11.39;66.84;103358.88;5037594;28;45624;-83
2021/12/16 12:06:31;;;;;;;;;3.00;2.00;;;;;11.21;67.06;103318.91;5040388;28;45454;-83
2021/12/16 12:08:59;;;;;;;;;2.25;1.75;;;;;11.27;66.90;103338.34;5039980;28;46415;-84
2021/12/16 12:11:31;;;;;;;;;2.00;2.00;;;;;11.37;66.76;103351.81;5039336;28;45298;-83
2021/12/16 12:14:13;;;;;;;;;5.25;3.00;;;;;11.56;66.64;103384.88;5035045;28;45580;-85
2021/12/16 12:16:40;;;;;;;;;2.25;1.00;;;;;11.62;67.51;103387.78;5037469;28;45437;-84
2021/12/16 12:19:21;;;;;;;;;3.25;3.00;;;;;11.60;66.67;103389.41;5037749;28;46195;-85
2021/12/16 12:21:56;;;;;;;;;4.00;2.00;;;;;11.63;66.70;103384.34;5040350;28;45380;-85
2021/12/16 12:24:24;;;;;;;;;1.75;1.50;;;;;11.63;66.31;103380.84;5040385;28;45508;-85
2021/12/16 12:27:11;;;;;;;;;5.25;2.75;;;;;11.05;66.37;103273.84;5032729;28;45482;-84
2021/12/16 12:29:36;;;;;;;;;2.75;2.25;;;;;11.67;66.35;103372.31;5039808;28;46099;-86
2021/12/16 12:32:24;;;;;;;;;5.00;4.00;;;;;11.15;67.13;103283.88;5042569;28;45224;-85
2021/12/16 12:34:55;;;;;;;;;2.00;2.00;;;;;11.61;66.26;103353.81;5040677;28;45474;-86
2021/12/16 12:37:25;;;;;;;;;2.75;1.75;;;;;11.64;66.23;103369.59;5040417;28;45374;-84
2021/12/16 12:39:58;;;;;;;;;4.00;3.50;;;;;11.43;66.12;103335.56;5040621;28;46242;-84
2021/12/16 12:42:25;;;;;;;;;5.00;2.50;;;;;11.26;66.42;103317.41;5039130;28;45229;-85
2021/12/16 12:44:51;;;;;;;;;5.00;3.00;;;;;11.49;66.20;103359.34;5039157;28;45452;-85
2021/12/16 12:47:23;;;;;;;;;2.00;1.50;;;;;11.61;66.24;103378.16;5039876;28;45354;-85
2021/12/16 12:49:49;;;;;;;;;2.75;2.75;;;;;11.57;65.90;103371.00;5043124;28;46115;-82
2021/12/16 12:52:17;;;;;;;;;3.25;2.00;;;;;11.22;65.99;103295.53;5044287;28;45496;-84
2021/12/16 12:55:06;;;;;;;;;2.50;1.00;;;;;11.61;65.89;103375.53;5044069;28;45460;-86
2021/12/16 12:57:56;;;;;;;;;3.25;3.25;;;;;10.92;65.85;103243.72;5052297;28;45390;-82
2021/12/16 13:00:30;;;;;;;;;4.50;3.50;;;;;11.65;66.06;103367.06;5044283;28;45517;-84
2021/12/16 13:03:10;;;;;;;;;5.50;3.00;;;;;11.23;66.03;103286.88;5043454;28;45467;-85
2021/12/16 13:05:36;;;;;;;;;5.50;4.75;;;;;11.35;65.79;103294.38;5044269;28;45313;-84
2021/12/16 13:08:09;;;;;;;;;2.00;2.00;;;;;10.85;65.73;103210.38;5043914;28;45320;-83
2021/12/16 13:10:45;;;;;;;;;3.00;2.00;;;;;11.58;65.77;103327.56;5043551;28;45365;-84
2021/12/16 13:27:23;;;;;;;;;3.50;2.75;;;;;11.03;65.43;103220.78;5045344;28;45389;-83
2021/12/16 13:30:16;;;;;;;;;2.50;1.75;;;;;11.50;65.28;103291.59;5042613;28;45461;-83
2021/12/16 13:32:46;;;;;;;;;2.50;2.00;;;;;11.39;64.86;103259.78;5048814;28;46010;-84
2021/12/16 13:37:53;;;;;;;;;1.50;1.50;;;;;11.84;65.00;103344.41;5054596;28;45443;-83
2021/12/16 13:40:31;;;;;;;;;2.75;2.00;;;;;11.50;65.09;103282.84;5043119;28;45345;-82
2021/12/16 13:43:02;;;;;;;;;1.50;1.50;;;;;11.85;64.86;103327.91;5042946;28;46306;-81
2021/12/16 13:45:49;;;;;;;;;2.25;2.25;;;;;11.09;65.09;103201.91;5043545;28;45425;-83
2021/12/16 13:48:36;;;;;;;;;5.00;3.50;;;;;11.93;64.83;103329.97;5042485;28;45385;-83
2021/12/16 14:05:03;;;;;;;;;2.25;1.25;;;;;12.02;64.85;103346.06;5044726;28;45604;-83
2021/12/16 14:07:57;;;;;;;;;2.00;2.00;;;;;11.43;64.79;103244.28;5039937;28;45401;-84
2021/12/16 14:10:43;;;;;;;;;2.75;2.75;;;;;11.99;65.04;103345.91;5034202;28;45505;-85
2021/12/16 14:16:56;;;;;;;;;6.75;5.50;;;;;11.96;64.93;103340.56;5042548;28;45424;-82
2021/12/16 14:49:51;;;;;;;;;7.00;4.00;;;;;11.36;67.05;103332.66;5042646;28;45244;-84
2021/12/16 14:52:24;;;;;;;;;2.00;2.00;;;;;11.48;66.90;103352.31;5041446;28;45500;-86
2021/12/16 14:54:56;;;;;;;;;3.00;3.00;;;;;11.30;66.69;103326.28;5045739;28;45295;-83
2021/12/16 14:57:30;;;;;;;;;2.25;1.50;;;;;10.64;66.67;103222.44;5033299;28;45276;-84
2021/12/16 14:59:56;;;;;;;;;3.00;2.25;;;;;10.88;66.89;103271.31;5042242;28;45328;-83
2021/12/16 15:02:27;;;;;;;;;3.25;3.25;;;;;11.40;67.11;103352.84;5042108;28;45201;-85
2021/12/16 15:04:53;;;;;;;;;4.75;3.75;;;;;10.94;67.06;103280.28;5042000;28;45531;-84
2021/12/16 15:07:19;;;;;;;;;3.00;3.00;;;;;11.06;67.06;103308.66;5046122;28;45786;-81
2021/12/16 15:09:46;;;;;;;;;1.00;1.00;;;;;11.19;67.23;103338.78;5041836;28;45467;-84